Nichols, Minnesota
Current Conditions -  °F | °C
As of 6:51 AM on Thursday 30 Oct 2014 (Local Time) from KEVM Reporting Station
Overcast Overcast  
Wind Chill: 30°   Ceiling: 600
Heat Index: 34°   Visibility: 7mi
Dew Point: 34°   Wind: 5mph
Humidity: 100%   Direction: 320°NW
Pressure: 30.05"   Gusts: NA
Location:  47.4996°N, 92.6723°W
Report Text: KEVM 301151Z AUTO 32004KT 7SM BKN006 OVC012 01/01 A3005 RMK AO2
Loading
Personal Weather Stations






























Interactive Weather Map
Tropical Storm Tracking
New forecast layout! Learn more

10-Day Weather Forecast

Advertisements
Track Severe Weather on mobile